Date,TemperatureHighF,TemperatureAvgF,TemperatureLowF,DewpointHighF,DewpointAvgF,DewpointLowF,HumidityHigh,HumidityAvg,HumidityLow,PressureMaxIn,PressureMinIn,WindSpeedMaxMPH,WindSpeedAvgMPH,GustSpeedMaxMPH,PrecipitationSumIn
2014-1-1,30,24,17,21,16,8,88,74,59,29.97,29.81,11,4,14,0.00
2014-1-2,25,17,9,22,16,8,100,95,84,29.80,29.27,16,7,21,0.00
2014-1-3,15,9,1,13,2,-6,100,76,48,30.01,29.26,26,12,31,0.00
2014-1-4,27,14,-1,14,3,-6,83,62,34,30.04,29.85,16,6,17,0.00
2014-1-5,45,29,16,45,25,13,100,88,61,29.87,29.31,18,4,20,0.24
2014-1-6,56,38,5,56,32,-9,99,81,43,29.38,28.98,39,15,39,0.44
2014-1-7,8,2,-4,-8,-13,-19,62,50,36,29.90,29.38,33,10,36,0.00
2014-1-8,21,10,2,3,-2,-8,72,58,41,30.08,29.90,16,6,17,0.00
2014-1-9,37,22,16,13,10,3,83,62,31,30.21,30.03,12,5,15,0.00
2014-1-10,34,29,24,34,26,13,100,88,63,30.14,29.78,10,3,13,0.08
2014-1-11,59,50,33,59,50,32,99,99,99,29.78,28.94,24,11,28,0.72
2014-1-12,47,39,33,46,32,28,100,78,65,29.67,29.06,23,11,29,0.01
2014-1-13,53,42,31,38,34,28,92,72,50,29.71,29.48,21,7,22,0.00
2014-1-14,47,43,39,44,41,37,100,94,70,29.48,29.31,18,6,20,0.47
2014-1-15,50,38,34,44,37,34,100,96,74,29.58,29.47,15,5,15,0.07
2014-1-16,34,32,28,34,31,27,100,99,93,29.55,29.45,11,3,15,0.01
2014-1-17,43,33,26,32,25,18,91,73,58,29.56,29.46,8,4,11,0.00
2014-1-18,37,29,20,34,26,15,100,86,73,29.47,29.30,19,8,22,0.05
2014-1-19,32,24,16,24,18,13,90,78,64,29.44,29.25,16,7,24,0.00
2014-1-20,37,32,23,31,24,16,94,74,63,29.50,29.20,17,7,18,0.00
2014-1-21,23,14,6,15,10,1,94,83,64,29.57,29.41,17,6,24,0.00
2014-1-22,16,5,-3,1,-8,-12,79,57,34,29.57,29.39,23,12,26,0.00
2014-1-23,21,9,0,6,-1,-7,84,63,38,29.84,29.55,19,7,20,0.00
2014-1-24,23,11,4,1,-2,-8,77,56,29,29.93,29.59,21,10,24,0.00
2014-1-25,20,16,12,18,11,0,100,82,57,29.59,29.02,18,8,21,0.00
2014-1-26,23,17,10,16,5,-5,97,61,30,29.46,29.07,27,9,27,0.00
2014-1-27,37,24,14,27,11,-4,79,59,33,29.65,29.20,24,10,28,0.00
2014-1-28,17,10,5,0,-6,-14,71,49,26,29.92,29.65,15,6,20,0.00
2014-1-29,25,13,5,-1,-6,-16,63,44,16,29.85,29.66,21,7,21,0.00
2014-1-30,35,19,9,4,0,-4,58,44,20,30.01,29.73,17,5,24,0.00
2014-1-31,40,26,16,17,13,3,71,56,36,29.82,29.66,13,4,17,0.00
2014-2-1,48,37,30,38,21,16,100,54,31,29.90,29.61,15,6,17,0.00
2014-2-2,50,40,34,39,35,30,100,82,48,29.70,29.52,12,5,12,0.00
2014-2-3,35,28,18,31,27,17,99,96,84,29.89,29.68,14,6,20,0.00
2014-2-4,45,26,14,24,18,12,96,74,35,30.04,29.79,10,4,11,0.08
2014-2-5,31,27,23,31,27,22,100,98,90,29.83,29.25,12,2,14,0.00
2014-2-6,33,21,12,22,16,10,97,80,55,29.86,29.58,0,0,0,0.00
2014-2-7,37,24,17,18,13,6,81,63,40,29.89,29.78,0,0,0,0.00
2014-2-8,31,21,13,8,1,-8,63,44,19,29.89,29.72,0,0,0,0.00
2014-2-9,34,21,13,20,12,5,100,71,34,29.75,29.57,11,2,14,0.00
2014-2-10,29,20,13,20,8,4,100,63,38,29.84,29.58,21,9,22,0.00
2014-2-11,26,16,9,7,3,1,76,57,34,30.03,29.83,17,8,21,0.00
2014-2-12,29,16,5,13,4,0,82,61,33,30.10,29.85,11,4,17,0.00
2014-2-13,32,23,14,31,23,13,100,98,83,29.84,28.71,21,6,34,0.00
2014-2-14,40,32,26,31,26,22,100,82,61,29.37,28.71,18,3,21,0.09
2014-2-15,34,28,21,30,25,14,100,87,71,29.39,29.22,29,8,32,0.01
2014-2-16,28,19,14,14,10,7,77,66,43,29.71,29.39,21,11,30,0.00
2014-2-17,40,22,10,8,2,-9,76,48,12,29.96,29.71,18,7,20,0.00
2014-2-18,36,28,21,33,23,5,100,81,45,29.86,29.55,17,6,17,0.06
2014-2-19,43,34,26,42,31,20,100,87,71,29.68,29.30,21,6,24,0.28
2014-2-20,55,41,32,36,28,23,94,61,32,29.85,29.60,17,6,21,0.00
2014-2-21,49,40,37,49,39,34,100,98,84,29.61,29.24,21,6,21,0.19
2014-2-22,56,45,36,35,23,19,91,45,24,29.63,29.51,24,8,30,0.09
2014-2-23,61,45,35,31,29,26,73,55,29,29.62,29.44,13,5,15,0.00
2014-2-24,39,30,21,29,15,7,87,55,32,29.66,29.43,21,11,26,0.00
2014-2-25,31,23,18,16,11,8,68,59,43,29.66,29.51,22,7,24,0.00
2014-2-26,31,21,12,22,6,-6,90,55,23,29.55,29.40,24,6,27,0.00
2014-2-27,32,18,6,15,0,-16,92,46,31,29.66,29.22,28,11,38,0.01
2014-2-28,30,13,1,-2,-8,-15,57,39,20,29.96,29.66,19,6,24,0.00
2014-3-1,37,24,11,16,6,-8,63,45,27,29.95,29.73,14,4,18,0.00
2014-3-2,40,31,23,27,19,11,68,62,56,29.72,29.59,14,6,15,0.00
2014-3-3,23,16,8,12,2,-3,68,54,40,29.90,29.60,31,12,31,0.00
2014-3-4,34,17,4,7,1,-7,77,51,22,29.96,29.81,14,4,14,0.00
2014-3-5,39,27,18,14,8,0,70,45,19,30.02,29.76,15,5,19,0.00
2014-3-6,38,21,9,11,0,-10,70,42,13,30.18,30.01,14,5,17,0.00
2014-3-7,46,30,18,28,20,10,79,66,42,30.03,29.53,8,4,10,0.00
2014-3-8,57,41,27,33,30,26,100,68,35,29.53,29.41,18,6,18,0.00
2014-3-9,43,36,32,31,19,6,84,54,26,29.64,29.50,19,9,27,0.00
2014-3-10,52,41,32,32,26,17,82,56,41,29.54,29.23,14,6,16,0.00
2014-3-11,66,53,43,40,36,31,72,54,34,29.33,29.19,14,6,17,0.00
2014-3-12,54,44,23,46,38,19,100,79,60,29.31,28.66,35,6,35,0.45
2014-3-13,26,18,13,19,3,-2,83,54,30,29.65,28.87,46,22,49,0.15
2014-3-14,45,30,16,26,11,-4,58,45,32,29.77,29.47,20,8,24,0.00
2014-3-15,56,46,37,32,26,23,60,46,30,29.62,29.35,30,11,30,0.00
2014-3-16,37,29,23,24,10,1,64,46,32,29.78,29.62,20,10,24,0.00
2014-3-17,32,24,16,6,0,-15,53,36,14,29.72,29.62,12,5,16,0.00
2014-3-18,48,31,18,21,0,-13,74,30,10,29.87,29.69,13,5,13,0.00
2014-3-19,46,33,26,45,30,21,100,92,74,29.87,29.44,17,5,17,0.79
2014-3-20,50,40,34,48,32,22,99,74,44,29.52,29.35,23,10,29,0.02
2014-3-21,53,41,33,23,20,16,63,46,23,29.65,29.51,22,8,25,0.00
2014-3-22,62,46,35,37,27,20,74,50,24,29.63,29.40,27,8,30,0.00
2014-3-23,36,33,21,28,17,6,73,54,28,29.73,29.59,21,10,36,0.00
2014-3-24,33,23,15,9,5,0,67,47,25,29.82,29.69,20,8,23,0.00
2014-3-25,37,28,19,20,12,3,63,49,30,29.74,29.46,17,4,17,0.00
2014-3-26,31,26,19,23,10,2,82,53,32,29.82,29.38,42,17,42,0.01
2014-3-27,43,30,15,20,8,-1,67,43,17,29.98,29.81,21,8,27,0.00
2014-3-28,56,43,32,55,40,20,100,87,57,29.82,29.58,17,8,25,0.05
2014-3-29,54,44,41,54,44,40,100,98,90,29.79,29.28,19,7,25,1.15
2014-3-30,44,40,34,44,40,34,99,99,99,29.31,29.14,39,15,53,0.57
2014-3-31,52,40,32,37,34,31,100,79,52,29.69,29.31,30,16,42,0.04
2014-4-1,38,34,32,32,30,29,91,85,77,29.71,29.68,15,6,16,0.00
2014-4-2,61,47,39,44,40,37,95,78,55,29.70,29.63,7,4,7,0.00
2014-4-3,65,52,41,44,26,6,99,47,10,29.75,29.61,12,5,12,0.08
2014-4-4,42,38,38,42,38,38,99,99,99,29.64,29.37,18,8,31,0.20
2014-4-5,50,41,35,46,34,24,99,78,49,29.68,29.35,29,12,32,0.01
2014-4-6,64,45,30,25,18,3,79,43,10,29.81,29.68,14,6,23,0.00
2014-4-7,50,45,41,44,31,18,99,63,28,29.81,29.26,17,6,21,0.37
2014-4-8,62,51,44,62,46,36,99,83,53,29.28,29.06,30,10,30,0.12
2014-4-9,58,48,38,40,33,25,96,60,31,29.64,29.27,26,10,31,0.00
2014-4-10,66,52,36,37,29,19,57,42,30,29.81,29.63,24,10,34,0.05
2014-4-11,71,57,48,56,46,37,100,68,40,29.65,29.56,22,9,28,0.07
2014-4-12,74,58,42,54,43,34,99,63,23,29.86,29.65,27,6,45,0.01
2014-4-13,81,65,52,61,52,33,99,65,41,29.80,29.59,26,10,34,0.09
2014-4-14,76,68,60,62,59,56,100,75,52,29.63,29.45,29,13,34,0.47
2014-4-15,64,53,30,63,53,30,99,98,89,29.53,29.15,58,14,58,1.61
2014-4-16,45,34,24,30,20,16,100,59,33,30.16,29.54,54,17,65,0.00
2014-4-17,53,40,30,32,23,15,91,54,26,30.29,30.16,27,9,32,0.00
2014-4-18,52,42,31,34,32,29,100,70,43,30.20,29.85,20,8,31,0.00
2014-4-19,66,53,42,39,27,9,81,42,11,29.97,29.83,23,9,37,0.00
2014-4-20,63,51,40,31,27,24,59,41,26,30.08,29.93,17,8,22,0.00
2014-4-21,73,56,37,25,15,4,54,24,10,29.94,29.49,13,4,13,0.00
2014-4-22,70,58,49,56,46,24,91,66,28,29.49,29.17,14,6,16,0.01
2014-4-23,56,47,39,50,38,30,88,71,50,29.49,29.16,49,20,52,0.00
2014-4-24,59,47,35,31,16,1,71,34,10,29.67,29.48,52,18,56,0.00
2014-4-25,69,51,38,45,24,9,100,41,11,29.66,29.39,30,9,44,0.28
2014-4-26,68,53,42,51,44,38,99,76,35,29.52,29.33,26,7,30,0.27
2014-4-27,57,48,41,39,36,33,85,63,43,29.75,29.51,44,14,46,0.00
2014-4-28,68,53,38,40,35,30,90,55,26,29.75,29.62,18,6,21,0.00
2014-4-29,52,46,43,44,42,38,100,86,64,29.93,29.69,44,14,48,0.04
2014-4-30,50,44,38,50,44,38,99,99,99,29.94,29.55,24,11,25,2.50
2014-5-1,76,62,50,68,55,49,99,82,44,29.55,29.33,29,7,32,0.38
2014-5-2,65,57,51,52,43,37,100,60,37,29.49,29.37,25,7,25,0.00
2014-5-3,69,57,47,53,44,39,99,66,36,29.51,29.37,27,8,31,0.15
2014-5-4,61,54,49,51,41,26,99,64,27,29.45,29.31,42,16,53,0.02
2014-5-5,67,55,45,39,29,12,77,42,13,29.56,29.45,44,16,56,0.00
2014-5-6,69,56,46,36,31,24,59,40,19,29.71,29.51,26,9,34,0.00
2014-5-7,73,58,43,44,33,22,68,42,19,29.87,29.72,15,5,19,0.00
2014-5-8,68,55,49,62,54,44,100,95,68,29.81,29.70,15,4,17,0.32
2014-5-9,66,59,53,66,59,53,100,99,96,29.79,29.60,23,6,27,0.00
2014-5-10,82,67,60,71,63,60,100,86,53,29.60,29.49,23,8,28,0.19
2014-5-11,82,69,55,60,46,32,99,51,17,29.73,29.54,23,8,27,0.01
2014-5-12,85,74,64,60,53,44,62,49,25,29.77,29.68,20,4,21,0.00
2014-5-13,76,67,51,63,52,40,78,60,44,29.89,29.68,22,8,23,0.00
2014-5-14,76,60,48,65,54,42,100,83,60,29.93,29.83,20,7,27,0.00
2014-5-15,78,67,59,76,66,59,100,97,81,29.85,29.67,39,13,44,0.06
2014-5-16,68,64,53,67,64,53,99,99,99,29.68,29.41,52,20,59,1.41
2014-5-17,68,57,46,54,46,40,99,70,39,29.76,29.50,28,7,28,0.01
2014-5-18,65,54,45,47,42,36,100,66,38,29.83,29.75,18,6,19,0.00
2014-5-19,71,57,45,48,39,31,80,54,25,29.86,29.73,22,8,27,0.00
2014-5-20,78,64,50,52,43,31,82,52,18,29.80,29.64,18,6,19,0.00
2014-5-21,72,64,58,61,55,51,99,75,55,29.67,29.53,12,4,15,0.00
2014-5-22,78,64,58,70,62,58,100,95,68,29.54,29.41,17,5,21,0.50
2014-5-23,73,59,52,61,56,52,100,92,57,29.61,29.47,23,7,26,0.27
2014-5-24,73,59,52,61,56,52,100,91,60,29.73,29.58,27,7,30,0.14
2014-5-25,82,68,51,61,51,42,99,61,25,29.76,29.67,20,6,21,0.01
2014-5-26,88,75,64,58,52,45,62,45,24,29.72,29.57,18,6,20,0.00
2014-5-27,87,74,67,70,63,55,100,69,45,29.58,29.45,23,6,23,0.01
2014-5-28,68,61,52,68,61,52,100,99,97,29.79,29.45,16,5,18,0.00
2014-5-29,68,56,49,55,51,45,100,83,57,29.84,29.76,17,4,19,0.06
2014-5-30,78,64,52,58,53,46,100,70,40,29.78,29.64,16,5,16,0.00
2014-5-31,76,64,51,55,50,44,100,64,35,29.91,29.73,18,5,21,0.00
2014-6-1,80,66,52,57,52,47,97,65,38,30.00,29.87,11,4,15,0.00
2014-6-2,84,70,56,63,56,47,81,62,46,29.90,29.67,14,6,14,0.00
2014-6-3,90,75,64,74,67,59,100,77,47,29.68,29.47,21,4,24,0.00
2014-6-4,85,72,62,69,60,53,100,69,38,29.52,29.41,15,4,18,0.00
2014-6-5,74,64,57,66,57,53,100,78,51,29.48,29.33,19,6,21,0.83
2014-6-6,74,64,53,58,54,51,94,73,51,29.62,29.46,21,7,21,0.00
2014-6-7,88,71,54,61,56,53,100,64,33,29.67,29.58,20,4,24,0.00
2014-6-8,87,74,64,64,60,55,80,62,39,29.62,29.51,13,4,13,0.01
2014-6-9,71,65,60,71,64,57,100,97,66,29.62,29.54,12,4,41,0.44
2014-6-10,78,68,63,73,67,63,100,98,85,29.64,29.57,11,3,24,0.01
2014-6-11,68,64,60,68,63,60,100,99,97,29.75,29.63,14,5,15,0.01
2014-6-12,68,63,59,67,63,59,99,99,99,29.73,29.55,12,5,14,0.01
2014-6-13,85,70,65,78,55,9,100,74,10,29.56,29.39,14,4,20,2.52
2014-6-14,70,63,55,68,59,52,100,87,66,29.70,29.47,22,7,24,0.01
2014-6-15,80,66,53,63,57,53,100,76,47,29.77,29.68,18,6,24,0.00
2014-6-16,89,74,58,68,62,56,94,70,42,29.81,29.68,10,3,12,0.00
2014-6-17,92,81,69,74,71,67,100,73,48,29.74,29.55,19,5,20,0.00
2014-6-18,91,80,72,74,68,63,88,67,47,29.64,29.50,25,8,25,0.00
2014-6-19,80,71,62,73,68,57,100,91,72,29.68,29.59,10,4,11,0.12
2014-6-20,79,67,53,58,53,49,94,63,38,29.70,29.57,16,5,19,0.00
2014-6-21,82,70,56,62,54,48,81,60,40,29.63,29.52,11,4,12,0.00
2014-6-22,83,70,59,67,60,54,89,72,55,29.68,29.56,10,3,11,0.00
2014-6-23,83,72,62,70,64,58,100,76,59,29.78,29.68,12,5,16,0.00
2014-6-24,84,73,62,69,63,57,85,73,58,29.80,29.65,16,7,19,0.00
2014-6-25,88,75,65,78,71,63,100,88,66,29.66,29.47,15,6,15,0.26
2014-6-26,84,74,68,74,70,68,100,88,68,29.64,29.49,14,5,15,0.13
2014-6-27,90,76,65,72,66,62,100,75,43,29.86,29.64,9,3,11,0.00
2014-6-28,88,75,62,69,63,57,84,67,48,29.94,29.86,9,3,10,0.00
2014-6-29,87,76,65,70,65,60,90,71,49,29.91,29.75,11,4,13,0.00
2014-6-30,86,75,65,73,67,59,91,77,60,29.77,29.59,13,4,13,0.00
2014-7-1,92,80,68,78,73,68,100,81,59,29.62,29.48,14,6,17,0.00
2014-7-2,94,79,71,82,76,71,100,90,66,29.59,29.48,17,5,19,0.20
2014-7-3,89,75,67,84,73,67,100,92,75,29.64,29.52,15,4,23,1.48
2014-7-4,72,66,62,68,37,5,99,47,10,29.72,29.59,19,7,21,0.13
2014-7-5,81,69,56,62,56,53,93,65,42,29.83,29.71,17,8,22,0.00
2014-7-6,85,74,62,65,59,54,79,61,42,29.76,29.58,14,5,18,0.00
2014-7-7,90,79,68,74,69,64,100,74,54,29.58,29.40,18,7,25,0.20
2014-7-8,91,79,68,76,72,67,100,82,53,29.50,29.31,21,6,26,0.05
2014-7-9,88,74,66,74,69,66,99,86,58,29.65,29.43,32,5,35,0.70
2014-7-10,87,71,62,72,66,61,100,88,54,29.80,29.63,8,3,11,0.07
2014-7-11,89,75,63,69,65,60,100,73,47,29.88,29.78,8,3,9,0.00
2014-7-12,87,77,68,74,69,65,100,78,61,29.88,29.76,11,4,13,0.00
2014-7-13,86,75,67,79,72,67,100,91,72,29.76,29.54,19,6,21,0.30
2014-7-14,84,73,69,79,70,59,100,92,64,29.59,29.47,9,3,10,0.14
2014-7-15,84,74,70,79,65,13,100,80,10,29.49,29.39,9,3,11,0.08
2014-7-16,82,71,60,71,57,28,99,63,25,29.55,29.40,16,4,16,0.18
2014-7-17,80,70,59,66,61,56,100,75,48,29.77,29.55,11,4,14,0.00
2014-7-18,83,70,58,64,60,55,100,74,42,29.90,29.77,8,3,8,0.00
2014-7-19,82,72,64,67,61,57,100,71,54,29.89,29.82,8,3,11,0.00
2014-7-20,84,71,61,68,64,60,100,81,55,29.83,29.74,10,3,11,0.07
2014-7-21,88,74,62,71,67,62,99,79,49,29.86,29.78,8,3,10,0.00
2014-7-22,89,78,66,76,72,66,100,83,64,29.83,29.69,13,4,16,0.00
2014-7-23,91,78,69,80,73,69,100,86,65,29.70,29.44,14,5,17,0.02
2014-7-24,80,70,62,69,63,56,100,80,50,29.59,29.49,13,6,14,0.00
2014-7-25,84,70,55,64,59,54,100,70,45,29.70,29.59,9,3,11,0.00
2014-7-26,85,73,66,72,64,58,100,76,54,29.66,29.53,10,4,13,0.00
2014-7-27,88,77,65,75,70,65,100,83,52,29.55,29.31,17,5,17,0.50
2014-7-28,81,69,61,72,66,60,100,90,61,29.39,29.18,19,6,20,0.19
2014-7-29,76,64,57,61,58,54,100,81,49,29.64,29.39,14,5,15,0.00
2014-7-30,79,68,55,62,58,54,100,72,50,29.70,29.62,9,3,11,0.00
2014-7-31,84,72,61,67,62,58,92,72,52,29.79,29.69,14,4,14,0.00
2014-8-1,87,73,66,74,68,63,100,87,60,29.85,29.79,12,4,17,0.00
2014-8-2,82,70,65,70,67,64,100,89,63,29.84,29.73,8,3,11,0.00
2014-8-3,77,69,64,71,67,64,100,94,79,29.77,29.68,6,2,9,0.00
2014-8-4,87,74,66,71,68,65,100,82,54,29.74,29.68,8,3,9,0.00
2014-8-5,91,77,65,72,68,65,100,75,47,29.71,29.57,14,3,24,0.00
2014-8-6,83,71,62,68,64,60,100,81,53,29.59,29.51,14,5,14,0.00
2014-8-7,81,69,56,63,58,54,93,71,44,29.68,29.57,14,5,20,0.00
2014-8-8,82,69,58,63,59,53,91,71,47,29.77,29.68,11,4,11,0.00
2014-8-9,87,73,60,65,59,54,100,65,34,29.79,29.73,8,3,10,0.00
2014-8-10,90,76,64,66,60,56,86,59,34,29.80,29.73,8,2,8,0.00
2014-8-11,89,76,67,68,62,58,95,63,37,29.79,29.71,14,4,18,0.00
2014-8-12,74,69,66,74,68,66,100,99,90,29.73,29.48,22,6,24,0.32
2014-8-13,84,71,65,74,68,60,100,90,64,29.49,29.33,19,6,24,0.18
2014-8-14,78,67,56,60,57,55,100,73,48,29.55,29.45,14,6,17,0.04
2014-8-15,70,62,54,56,54,50,92,75,56,29.63,29.54,14,4,17,0.00
2014-8-16,79,68,58,61,56,52,87,66,45,29.67,29.57,10,4,16,0.00
2014-8-17,80,69,60,69,61,55,100,76,56,29.58,29.50,17,6,17,0.08
2014-8-18,81,68,55,64,59,55,100,75,48,29.59,29.49,14,4,14,0.00
2014-8-19,87,73,59,67,60,55,91,67,42,29.59,29.52,8,3,9,0.00
2014-8-20,88,74,65,71,67,64,100,81,56,29.67,29.57,11,4,12,0.00
2014-8-21,86,72,57,74,68,56,100,88,60,29.71,29.61,14,4,14,1.00
2014-8-22,74,67,64,73,66,60,100,97,86,29.70,29.63,11,3,14,0.07
2014-8-23,70,65,62,68,64,61,100,98,91,29.77,29.67,10,2,15,0.08
2014-8-24,86,70,59,67,63,59,99,81,47,29.81,29.75,9,3,11,0.00
2014-8-25,90,74,60,69,64,60,100,75,47,29.85,29.78,8,3,9,0.00
2014-8-26,90,77,64,70,66,62,100,70,44,29.83,29.72,8,3,11,0.00
2014-8-27,91,79,67,75,70,66,100,78,56,29.73,29.53,10,4,12,0.00
2014-8-28,78,68,58,73,59,51,100,73,50,29.73,29.53,23,8,23,0.00
2014-8-29,81,66,53,62,57,53,100,75,46,29.88,29.72,8,3,11,0.00
2014-8-30,78,68,58,68,64,58,100,86,65,29.91,29.77,11,4,14,0.00
2014-8-31,88,75,67,80,72,67,100,94,68,29.78,29.62,10,4,17,0.17
2014-9-1,92,79,71,78,74,70,99,88,63,29.67,29.58,9,3,10,0.00
2014-9-2,92,81,72,78,75,72,100,83,56,29.61,29.47,13,5,17,0.00
2014-9-3,88,73,65,72,65,59,100,76,43,29.77,29.51,13,4,18,0.00
2014-9-4,91,77,65,68,63,59,83,63,42,29.84,29.75,12,4,14,0.00
2014-9-5,87,74,67,78,72,61,100,92,70,29.83,29.67,11,3,13,0.00
2014-9-6,91,77,60,79,73,60,100,88,58,29.67,29.49,27,5,27,0.30
2014-9-7,80,67,57,63,59,54,99,76,41,29.84,29.60,16,4,17,0.01
2014-9-8,79,67,59,64,57,53,87,72,52,29.96,29.84,14,4,17,0.00
2014-9-9,79,66,56,64,60,55,100,84,57,29.92,29.78,11,4,13,0.00
2014-9-10,83,70,61,66,63,60,100,82,52,29.78,29.64,11,4,12,0.00
2014-9-11,84,70,63,75,68,60,100,94,73,29.65,29.49,16,7,17,0.00
2014-9-12,76,63,54,60,55,52,94,78,49,29.84,29.63,15,7,17,0.00
2014-9-13,60,55,50,60,55,50,100,98,92,29.83,29.73,11,4,11,0.39
2014-9-14,74,57,47,53,49,46,100,78,42,29.92,29.82,13,4,14,0.01
2014-9-15,75,60,46,55,50,46,100,73,44,29.88,29.70,10,3,11,0.00
2014-9-16,71,59,52,64,55,50,100,87,62,29.70,29.61,14,4,17,0.32
2014-9-17,77,62,49,56,50,47,99,69,37,29.71,29.61,8,2,8,0.00
2014-9-18,76,63,52,57,51,47,93,68,44,29.77,29.59,7,2,10,0.05
2014-9-19,72,58,47,54,51,45,100,81,50,29.98,29.77,15,5,15,0.00
2014-9-20,77,64,53,64,60,52,99,87,61,29.95,29.71,17,6,18,0.00
2014-9-21,84,70,61,68,64,61,100,85,53,29.72,29.28,9,4,12,0.05
2014-9-22,66,59,48,64,53,43,100,80,55,29.81,29.32,25,9,25,0.00
2014-9-23,77,59,44,54,48,42,97,68,38,30.03,29.81,8,4,10,0.00
2014-9-24,76,63,53,58,55,51,93,76,51,30.18,30.03,12,4,14,0.00
2014-9-25,63,57,54,62,56,54,100,98,88,30.10,29.87,13,5,15,0.24
2014-9-26,82,64,50,60,56,50,100,77,42,29.88,29.81,11,4,14,0.00
2014-9-27,89,70,56,64,58,52,100,69,29,29.89,29.81,10,3,10,0.00
2014-9-28,89,73,60,66,60,56,96,66,37,29.83,29.67,8,3,10,0.00
2014-9-29,80,69,63,66,62,58,100,77,58,29.67,29.56,8,3,9,0.00
2014-9-30,81,66,59,67,61,56,100,85,45,29.62,29.54,11,4,14,0.00
2014-10-1,69,61,56,63,59,56,100,95,79,29.73,29.62,11,3,14,0.00
2014-10-2,71,62,56,62,59,56,100,91,70,29.80,29.72,8,3,11,0.01
2014-10-3,73,62,57,61,58,52,100,86,62,29.75,29.47,13,5,15,0.00
2014-10-4,67,57,44,65,55,36,99,91,69,29.46,29.19,20,8,21,0.38
2014-10-5,60,48,38,42,39,36,94,71,50,29.62,29.36,20,6,20,0.00
2014-10-6,65,50,43,50,42,39,86,75,52,29.67,29.61,17,4,19,0.00
2014-10-7,61,61,60,61,60,60,99,99,99,29.53,29.50,16,11,22,0.02
2014-10-8,73,62,56,62,53,43,99,75,43,29.59,29.41,20,9,27,0.13
2014-10-9,69,58,50,44,42,38,78,58,36,29.69,29.58,17,7,19,0.00
2014-10-10,62,53,45,47,44,40,88,71,49,29.76,29.68,8,3,11,0.00
2014-10-11,56,48,45,56,48,45,100,97,81,29.81,29.67,17,3,41,0.22
2014-10-12,69,52,40,46,42,37,99,72,37,29.93,29.80,3,0,3,0.00
2014-10-13,61,55,50,60,54,46,100,95,87,29.95,29.86,0,0,0,0.02
2014-10-14,77,68,61,74,66,60,100,95,73,29.86,29.71,0,0,0,0.01
2014-10-15,75,69,67,74,69,66,100,99,92,29.72,29.45,10,0,14,0.53
2014-10-16,73,64,57,72,62,56,100,94,74,29.45,29.33,5,0,7,0.40
2014-10-17,73,61,53,61,56,53,99,83,57,29.39,29.31,0,0,0,0.00
2014-10-18,69,58,51,58,52,45,99,83,53,29.39,29.22,0,0,0,0.00
2014-10-19,51,46,36,47,36,30,87,70,46,29.68,29.38,0,0,0,0.00
2014-10-20,60,47,35,45,37,30,85,68,48,29.72,29.57,0,0,0,0.00
2014-10-21,69,54,49,57,51,45,100,89,61,29.57,29.46,0,0,0,0.00
2014-10-22,52,50,48,52,50,48,99,99,99,29.59,29.42,0,0,0,0.33
2014-10-23,51,48,46,50,48,46,100,97,92,29.45,29.37,0,0,0,0.09
2014-10-24,68,56,48,50,46,36,100,74,47,29.50,29.41,0,0,0,0.00
2014-10-25,70,58,47,52,43,34,88,58,43,29.51,29.22,0,0,0,0.01
2014-10-26,59,54,50,54,42,38,100,65,49,29.49,29.21,0,0,0,0.01
2014-10-27,68,53,42,41,38,31,87,59,26,29.65,29.47,0,0,0,0.00
2014-10-29,49,48,47,49,48,46,99,99,99,29.58,29.57,0,0,0,0.09
2014-10-30,55,47,39,49,43,39,100,87,58,29.64,29.56,0,0,0,0.01
2014-10-31,50,44,35,42,38,34,99,80,66,29.93,29.78,0,0,0,0.00
2014-11-1,44,42,40,42,40,36,99,91,73,29.80,29.73,0,0,0,0.19
2014-11-2,44,37,35,36,24,23,91,61,44,29.99,29.74,0,0,0,0.00
2014-11-3,63,48,34,32,23,10,76,43,15,30.08,29.97,0,0,0,0.00
2014-11-4,72,60,51,39,23,15,49,25,12,30.10,29.94,0,0,0,0.00
2014-11-5,59,56,52,46,38,32,63,52,36,30.07,29.93,0,0,0,0.00
2014-11-6,52,46,43,46,44,37,100,93,57,30.04,29.53,0,0,0,0.22
2014-11-7,49,41,32,45,37,28,99,86,72,29.86,29.52,0,0,0,0.01
2014-11-8,50,40,30,34,29,24,84,67,46,29.94,29.80,0,0,0,0.00
2014-11-9,60,47,41,39,35,32,83,63,40,29.94,29.80,0,0,0,0.00
2014-11-10,65,51,41,42,37,32,84,60,37,30.09,29.93,0,0,0,0.00
2014-11-11,68,55,45,60,52,42,100,91,72,30.05,29.84,0,0,0,0.00
2014-11-12,62,52,38,61,47,32,100,84,56,30.00,29.80,0,0,0,0.00
2014-11-13,47,36,31,34,30,28,99,81,51,30.03,29.89,0,0,0,0.00
2014-11-14,39,33,24,34,25,19,99,76,46,30.08,29.86,0,0,0,0.01
2014-11-15,42,32,27,24,20,18,80,62,40,30.25,30.07,0,0,0,0.00
2014-11-16,38,34,28,34,26,19,100,74,66,30.25,29.99,0,0,0,0.01
2014-11-17,43,38,34,43,38,33,99,99,89,29.98,29.44,0,0,0,0.61
2014-11-18,37,24,18,34,10,4,89,56,38,29.99,29.54,0,0,0,0.01
2014-11-19,32,23,15,16,9,5,71,56,35,30.14,29.90,0,0,0,0.00
2014-11-20,46,32,24,25,17,9,75,56,37,29.93,29.74,0,0,0,0.00
2014-11-21,35,26,21,14,11,8,70,53,35,30.37,29.93,0,0,0,0.00
2014-11-22,42,32,20,24,16,11,71,52,32,30.36,30.08,0,0,0,0.00
2014-11-23,60,46,37,48,28,22,93,51,27,30.12,29.87,0,0,0,0.00
2014-11-24,71,61,50,65,59,48,100,91,73,29.86,29.47,0,0,0,0.35
2014-11-25,61,50,44,61,38,32,100,65,45,30.07,29.68,0,0,0,0.00
2014-11-26,44,36,32,35,32,31,100,88,63,30.11,29.73,0,0,0,0.00
2014-11-27,35,26,24,35,26,24,99,99,97,29.97,29.85,0,0,0,0.02
2014-11-28,36,26,19,28,22,14,100,82,58,30.14,29.95,0,0,0,0.00
2014-11-29,33,25,18,29,19,14,86,79,64,30.22,30.06,0,0,0,0.00
2014-11-30,47,40,33,41,36,30,93,86,80,30.07,29.97,0,0,0,0.05
2014-12-1,61,46,34,49,41,27,100,84,63,30.37,29.99,0,0,0,0.07
2014-12-2,37,31,28,37,27,21,100,85,70,30.49,30.17,0,0,0,0.13
2014-12-3,40,37,33,40,36,28,99,95,77,30.17,29.87,0,0,0,0.11
2014-12-4,44,35,28,29,25,20,77,68,45,30.40,30.13,0,0,0,0.00
2014-12-5,34,30,26,33,27,20,100,88,70,30.45,30.24,0,0,0,0.28
2014-12-6,41,37,32,41,36,32,99,99,99,30.24,29.99,0,0,0,0.43
2014-12-7,45,33,22,36,24,16,100,70,41,30.49,30.12,0,0,0,0.00
2014-12-8,26,22,16,25,14,0,96,73,45,30.54,30.21,0,0,0,0.00
2014-12-9,38,33,25,38,33,24,100,99,97,30.20,29.62,0,0,0,0.18
2014-12-10,38,32,27,38,31,25,100,95,84,29.62,29.52,0,0,0,0.01
2014-12-11,34,29,26,29,26,23,100,88,68,29.77,29.53,0,0,0,0.00
2014-12-12,37,30,28,30,26,23,92,83,66,29.92,29.77,0,0,0,0.00
2014-12-13,36,34,31,34,30,26,95,85,77,29.92,29.81,0,0,0,0.00
2014-12-14,42,37,34,37,34,31,96,88,79,29.90,29.79,0,0,0,0.00
2014-12-15,51,39,31,38,35,31,100,86,60,30.00,29.88,0,0,0,0.00
2014-12-16,43,37,30,43,37,30,99,99,99,29.99,29.75,0,0,0,0.05